createdAt,value
2022-12-01T00:02:01.725Z,14.18
2022-12-01T00:04:38.632Z,8.30
2022-12-01T00:07:11.270Z,12.52
2022-12-01T00:09:57.522Z,14.07
2022-12-01T00:12:26.908Z,15.43
2022-12-01T00:15:01.506Z,15.55
2022-12-01T00:17:31.611Z,12.18
2022-12-01T00:20:01.202Z,5.97
2022-12-01T00:22:31.967Z,14.30
2022-12-01T00:25:01.197Z,15.27
2022-12-01T00:27:30.477Z,10.57
2022-12-01T00:29:59.731Z,18.30
2022-12-01T00:32:28.987Z,15.90
2022-12-01T00:34:58.285Z,17.77
2022-12-01T00:37:27.570Z,15.18
2022-12-01T00:39:58.467Z,11.95
2022-12-01T00:42:28.208Z,15.77
2022-12-01T00:44:57.498Z,8.98
2022-12-01T00:47:26.843Z,11.10
2022-12-01T00:49:56.111Z,15.45
2022-12-01T00:52:25.687Z,17.08
2022-12-01T00:54:54.995Z,12.30
2022-12-01T00:57:25.654Z,12.80
2022-12-01T00:59:54.876Z,8.75
2022-12-01T01:02:24.214Z,8.93
2022-12-01T01:04:53.502Z,11.25
2022-12-01T01:07:22.747Z,11.18
2022-12-01T01:09:51.907Z,12.00
2022-12-01T01:12:21.140Z,10.75
2022-12-01T01:14:51.969Z,16.65
2022-12-01T01:17:21.354Z,17.42
2022-12-01T01:19:50.737Z,18.90
2022-12-01T01:22:20.188Z,9.30
2022-12-01T01:24:49.453Z,16.15
2022-12-01T01:27:18.837Z,11.40
2022-12-01T01:29:48.308Z,11.70
2022-12-01T01:32:19.222Z,4.35
2022-12-01T01:34:48.532Z,18.45
2022-12-01T01:37:17.789Z,8.32
2022-12-01T01:39:47.795Z,10.65
2022-12-01T01:42:20.306Z,13.07
2022-12-01T01:44:52.109Z,14.45
2022-12-01T01:47:27.440Z,8.00
2022-12-01T01:49:58.800Z,8.38
2022-12-01T01:52:30.017Z,9.45
2022-12-01T01:54:59.933Z,11.02
2022-12-01T01:57:32.684Z,4.72
2022-12-01T02:00:08.274Z,8.13
2022-12-01T02:02:41.892Z,8.82
2022-12-01T02:05:14.248Z,9.70
2022-12-01T02:07:44.010Z,9.40
2022-12-01T02:10:15.796Z,14.95
2022-12-01T02:13:08.249Z,15.38
2022-12-01T02:15:43.047Z,5.90
2022-12-01T02:18:25.928Z,7.28
2022-12-01T02:21:19.679Z,17.30
2022-12-01T02:24:25.913Z,14.85
2022-12-01T02:27:04.465Z,11.40
2022-12-01T02:30:06.600Z,8.98
2022-12-01T02:32:52.467Z,8.05
2022-12-01T02:35:31.599Z,9.93
2022-12-01T02:38:10.043Z,6.70
2022-12-01T02:40:45.396Z,10.05
2022-12-01T02:43:22.310Z,9.60
2022-12-01T02:45:56.002Z,4.00
2022-12-01T02:48:30.104Z,14.35
2022-12-01T02:51:03.118Z,6.55
2022-12-01T02:53:32.499Z,10.55
2022-12-01T02:56:01.751Z,7.30
2022-12-01T02:58:31.043Z,10.30
2022-12-01T03:01:18.806Z,11.68
2022-12-01T03:04:03.129Z,7.07
2022-12-01T03:06:43.791Z,12.93
2022-12-01T03:09:23.737Z,18.55
2022-12-01T03:12:03.999Z,13.02
2022-12-01T03:14:40.652Z,16.25
2022-12-01T03:17:16.418Z,14.57
2022-12-01T03:19:52.047Z,12.68
2022-12-01T03:22:27.642Z,13.73
2022-12-01T03:24:59.347Z,10.88
2022-12-01T03:27:32.379Z,9.02
2022-12-01T03:30:03.854Z,15.63
2022-12-01T03:32:40.350Z,13.98
2022-12-01T03:35:16.681Z,13.80
2022-12-01T03:37:49.772Z,14.73
2022-12-01T03:40:23.029Z,13.48
2022-12-01T03:42:57.528Z,11.23
2022-12-01T03:45:32.484Z,14.77
2022-12-01T03:48:02.250Z,14.32
2022-12-01T03:50:40.879Z,12.23
2022-12-01T03:53:19.697Z,9.05
2022-12-01T03:55:58.442Z,15.10
2022-12-01T03:58:34.606Z,12.02
2022-12-01T04:01:05.580Z,8.18
2022-12-01T04:03:37.011Z,11.35
2022-12-01T04:06:08.614Z,11.05
2022-12-01T04:08:38.051Z,18.55
2022-12-01T04:11:32.385Z,12.27
2022-12-01T04:14:01.119Z,7.97
2022-12-01T04:16:30.488Z,12.05
2022-12-01T04:18:59.761Z,16.80
2022-12-01T04:21:30.690Z,14.52
2022-12-01T04:24:05.635Z,12.52
2022-12-01T04:26:37.277Z,20.10
2022-12-01T04:29:08.601Z,12.40
2022-12-01T04:31:38.096Z,10.05
2022-12-01T04:34:07.622Z,9.32
2022-12-01T04:36:38.451Z,3.25
2022-12-01T04:39:07.880Z,14.85
2022-12-01T04:41:37.093Z,11.18
2022-12-01T04:44:06.387Z,10.40
2022-12-01T04:46:35.604Z,8.93
2022-12-01T04:49:05.220Z,11.75
2022-12-01T04:51:34.735Z,7.07
2022-12-01T04:54:06.334Z,6.10
2022-12-01T04:56:35.534Z,5.80
2022-12-01T04:59:04.665Z,12.07
2022-12-01T05:01:33.818Z,17.85
2022-12-01T05:04:03.365Z,15.88
2022-12-01T05:06:32.870Z,5.93
2022-12-01T05:09:03.741Z,12.43
2022-12-01T05:11:34.901Z,15.60
2022-12-01T05:14:03.982Z,14.15
2022-12-01T05:16:34.296Z,5.75
2022-12-01T05:19:22.320Z,8.50
2022-12-01T05:21:52.635Z,16.95
2022-12-01T05:24:23.085Z,17.52
2022-12-01T05:26:53.693Z,12.50
2022-12-01T05:29:22.981Z,9.70
2022-12-01T05:31:52.093Z,8.40
2022-12-01T05:34:21.218Z,17.17
2022-12-01T05:36:50.996Z,18.13
2022-12-01T05:39:20.166Z,14.10
2022-12-01T05:41:49.295Z,19.77
2022-12-01T05:44:20.021Z,11.77
2022-12-01T05:46:49.239Z,9.90
2022-12-01T05:49:18.646Z,11.32
2022-12-01T05:51:47.733Z,15.35
2022-12-01T05:54:16.925Z,8.32
2022-12-01T05:56:46.032Z,12.50
2022-12-01T05:59:15.223Z,8.95
2022-12-01T06:01:45.918Z,10.00
2022-12-01T06:04:15.201Z,11.40
2022-12-01T06:06:44.407Z,9.60
2022-12-01T06:09:13.530Z,8.98
2022-12-01T06:11:42.660Z,10.45
2022-12-01T06:14:12.518Z,9.63
2022-12-01T06:16:41.730Z,10.10
2022-12-01T06:19:12.404Z,3.22
2022-12-01T06:21:41.484Z,9.98
2022-12-01T06:24:13.769Z,9.50
2022-12-01T06:26:42.947Z,11.27
2022-12-01T06:29:12.489Z,14.45
2022-12-01T06:31:43.638Z,14.35
2022-12-01T06:34:14.513Z,19.98
2022-12-01T06:36:43.779Z,14.50
2022-12-01T06:39:13.357Z,6.97
2022-12-01T06:41:45.357Z,16.20
2022-12-01T06:44:14.636Z,11.00
2022-12-01T06:46:44.546Z,11.70
2022-12-01T06:49:31.105Z,8.77
2022-12-01T06:52:02.942Z,9.05
2022-12-01T06:54:36.301Z,8.82
2022-12-01T06:57:05.723Z,6.28
2022-12-01T06:59:38.555Z,13.35
2022-12-01T07:02:14.771Z,10.15
2022-12-01T07:04:45.442Z,4.88
2022-12-01T07:07:14.963Z,5.60
2022-12-01T07:09:47.022Z,5.60
2022-12-01T07:12:16.345Z,7.47
2022-12-01T07:14:48.299Z,10.90
2022-12-01T07:17:20.341Z,8.13
2022-12-01T07:19:52.984Z,7.43
2022-12-01T07:22:29.488Z,13.95
2022-12-01T07:25:01.409Z,8.45
2022-12-01T07:27:32.475Z,14.82
2022-12-01T07:30:01.581Z,6.60
2022-12-01T07:32:30.708Z,14.55
2022-12-01T07:35:01.241Z,13.32
2022-12-01T07:37:32.921Z,9.43
2022-12-01T07:40:02.101Z,7.85
2022-12-01T07:42:31.249Z,10.65
2022-12-01T07:45:00.363Z,7.85
2022-12-01T07:47:37.323Z,12.65
2022-12-01T07:50:09.246Z,7.38
2022-12-01T07:52:38.332Z,10.25
2022-12-01T07:55:08.401Z,5.57
2022-12-01T07:57:37.460Z,9.50
2022-12-01T08:00:08.318Z,9.38
2022-12-01T08:02:40.006Z,5.95
2022-12-01T08:05:13.567Z,14.70
2022-12-01T08:07:42.805Z,9.02
2022-12-01T08:10:12.775Z,12.85
2022-12-01T08:12:41.982Z,14.55
2022-12-01T08:15:12.372Z,13.40
2022-12-01T08:17:41.582Z,9.32
2022-12-01T08:20:12.106Z,12.30
2022-12-01T08:22:43.952Z,7.97
2022-12-01T08:25:13.152Z,13.27
2022-12-01T08:27:42.425Z,7.40
2022-12-01T08:30:12.466Z,11.75
2022-12-01T08:32:41.599Z,13.25
2022-12-01T08:35:11.394Z,12.40
2022-12-01T08:37:40.543Z,13.32
2022-12-01T08:40:12.203Z,6.13
2022-12-01T08:42:41.464Z,14.65
2022-12-01T08:45:11.677Z,13.02
2022-12-01T08:47:40.754Z,20.85
2022-12-01T08:50:11.525Z,12.23
2022-12-01T08:52:41.777Z,9.48
2022-12-01T08:55:13.711Z,10.77
2022-12-01T08:57:44.331Z,9.85
2022-12-01T09:00:14.596Z,6.97
2022-12-01T09:02:43.762Z,10.48
2022-12-01T09:05:13.017Z,8.45
2022-12-01T09:07:43.263Z,8.38
2022-12-01T09:10:14.160Z,5.00
2022-12-01T09:12:43.374Z,9.98
2022-12-01T09:15:13.035Z,9.30
2022-12-01T09:17:42.130Z,12.00
2022-12-01T09:20:12.037Z,11.90
2022-12-01T09:22:41.501Z,11.48
2022-12-01T09:25:15.101Z,16.33
2022-12-01T09:27:45.785Z,6.45
2022-12-01T09:30:15.633Z,8.63
2022-12-01T09:32:44.809Z,8.90
2022-12-01T09:35:14.231Z,8.57
2022-12-01T09:37:43.410Z,8.05
2022-12-01T09:40:16.858Z,9.25
2022-12-01T09:42:48.743Z,7.72
2022-12-01T09:45:27.371Z,10.32
2022-12-01T09:48:00.881Z,13.02
2022-12-01T09:50:31.341Z,5.88
2022-12-01T09:53:04.350Z,7.15
2022-12-01T09:55:35.185Z,9.27
2022-12-01T09:58:07.140Z,9.05
2022-12-01T10:00:39.996Z,10.32
2022-12-01T10:03:18.649Z,7.95
2022-12-01T10:06:25.218Z,5.07
2022-12-01T10:08:45.832Z,4.80
2022-12-01T10:11:24.189Z,9.48
2022-12-01T10:13:54.912Z,10.80
2022-12-01T10:16:29.943Z,5.13
2022-12-01T10:19:03.713Z,2.00
2022-12-01T10:21:47.664Z,5.40
2022-12-01T10:24:30.131Z,3.75
2022-12-01T10:27:13.035Z,7.22
2022-12-01T10:29:50.533Z,12.25
2022-12-01T10:32:22.035Z,9.30
2022-12-01T10:34:51.250Z,4.78
2022-12-01T10:37:23.385Z,3.28
2022-12-01T10:39:54.017Z,9.70
2022-12-01T10:42:29.574Z,7.50
2022-12-01T10:45:03.155Z,6.95
2022-12-01T10:47:32.480Z,13.60
2022-12-01T10:50:01.607Z,13.85
2022-12-01T10:52:36.725Z,9.48
2022-12-01T10:55:26.756Z,3.75
2022-12-01T10:57:58.152Z,12.60
2022-12-01T11:03:23.904Z,5.25
2022-12-01T11:05:54.893Z,7.65
2022-12-01T11:08:27.253Z,7.28
2022-12-01T11:10:56.991Z,10.43
2022-12-01T11:13:30.158Z,4.72
2022-12-01T11:16:02.630Z,7.03
2022-12-01T11:18:35.260Z,12.00
2022-12-01T11:21:11.046Z,10.23
2022-12-01T11:26:15.326Z,7.25
2022-12-01T11:28:54.440Z,15.15
2022-12-01T11:31:39.988Z,23.75
2022-12-01T11:34:20.523Z,23.67
2022-12-01T11:36:52.218Z,22.42
2022-12-01T11:39:27.501Z,18.38
2022-12-01T11:41:58.815Z,23.50
2022-12-01T11:44:50.185Z,15.55
2022-12-01T11:47:23.576Z,21.00
2022-12-01T11:49:58.469Z,19.65
2022-12-01T11:52:31.810Z,16.45
2022-12-01T11:55:09.776Z,29.02
2022-12-01T11:57:42.208Z,12.18
2022-12-01T12:00:19.707Z,25.92
2022-12-01T12:03:12.325Z,25.67
2022-12-01T12:06:39.449Z,23.40
2022-12-01T12:09:23.148Z,26.63
2022-12-01T12:11:59.489Z,25.88
2022-12-01T12:14:43.637Z,10.27
2022-12-01T12:17:26.853Z,14.02
2022-12-01T12:20:13.668Z,12.68
2022-12-01T12:22:55.626Z,10.60
2022-12-01T12:25:34.323Z,8.13
2022-12-01T12:28:24.459Z,17.08
2022-12-01T12:31:03.954Z,15.48
2022-12-01T12:33:54.330Z,10.57
2022-12-01T12:36:35.886Z,14.90
2022-12-01T12:39:17.122Z,15.38
2022-12-01T12:41:50.544Z,19.90
2022-12-01T12:44:38.365Z,18.75
2022-12-01T12:47:21.640Z,7.10
2022-12-01T12:50:00.435Z,17.83
2022-12-01T12:52:34.964Z,6.28
2022-12-01T12:55:13.185Z,14.85
2022-12-01T12:57:47.611Z,24.17
2022-12-01T13:00:19.988Z,18.30
2022-12-01T13:02:53.488Z,16.85
2022-12-01T13:05:28.219Z,12.63
2022-12-01T13:08:04.861Z,11.35
2022-12-01T13:10:40.688Z,9.25
2022-12-01T13:15:47.128Z,9.68
2022-12-01T13:18:28.410Z,24.10
2022-12-01T13:20:59.364Z,9.38
2022-12-01T13:23:30.705Z,10.75
2022-12-01T13:26:03.483Z,16.65
2022-12-01T13:28:39.468Z,9.52
2022-12-01T13:31:10.779Z,16.00
2022-12-01T13:33:42.872Z,17.05
2022-12-01T13:39:07.778Z,17.08
2022-12-01T13:41:39.049Z,10.70
2022-12-01T13:44:12.521Z,20.73
2022-12-01T13:46:58.472Z,14.50
2022-12-01T13:49:44.276Z,20.60
2022-12-01T13:52:28.872Z,16.05
2022-12-01T13:55:32.729Z,2.97
2022-12-01T13:58:41.996Z,16.27
2022-12-01T14:01:48.514Z,14.73
2022-12-01T14:04:30.698Z,21.70
2022-12-01T14:07:36.870Z,17.63
2022-12-01T14:10:29.350Z,15.30
2022-12-01T14:13:06.411Z,26.80
2022-12-01T14:15:42.791Z,19.55
2022-12-01T14:18:33.800Z,19.25
2022-12-01T14:21:06.142Z,21.75
2022-12-01T14:23:37.543Z,21.33
2022-12-01T14:26:15.117Z,22.45
2022-12-01T14:29:19.662Z,22.55
2022-12-01T14:32:24.665Z,9.02
2022-12-01T14:35:15.864Z,17.27
2022-12-01T14:37:52.552Z,5.30
2022-12-01T14:40:27.649Z,7.65
2022-12-01T14:43:16.743Z,11.90
2022-12-01T14:45:56.945Z,12.15
2022-12-01T14:48:34.137Z,12.52
2022-12-01T14:51:17.376Z,7.40
2022-12-01T14:53:49.167Z,5.15
2022-12-01T14:56:20.551Z,4.85
2022-12-01T14:58:58.345Z,7.43
2022-12-01T15:01:42.682Z,9.13
2022-12-01T15:04:11.943Z,12.00
2022-12-01T15:06:42.802Z,10.30
2022-12-01T15:12:07.975Z,9.55
2022-12-01T15:14:39.130Z,13.43
2022-12-01T15:17:30.885Z,14.57
2022-12-01T15:20:00.538Z,9.90
2022-12-01T15:22:32.995Z,8.82
2022-12-01T15:25:10.198Z,18.23
2022-12-01T15:27:39.482Z,17.20
2022-12-01T15:30:15.177Z,17.23
2022-12-01T15:32:46.614Z,9.90
2022-12-01T15:35:21.423Z,10.82
2022-12-01T15:37:53.879Z,11.52
2022-12-01T15:41:06.226Z,10.65
2022-12-01T15:43:20.200Z,13.98
2022-12-01T15:45:53.185Z,9.18
2022-12-01T15:48:29.695Z,12.85
2022-12-01T15:51:10.464Z,12.38
2022-12-01T15:53:49.280Z,7.20
2022-12-01T15:56:26.815Z,8.25
2022-12-01T15:59:00.628Z,6.15
2022-12-01T16:01:37.777Z,10.80
2022-12-01T16:04:16.334Z,4.57
2022-12-01T16:06:57.003Z,6.15
2022-12-01T16:09:35.646Z,7.78
2022-12-01T16:12:24.898Z,5.03
2022-12-01T16:14:57.559Z,11.18
2022-12-01T16:17:27.140Z,9.68
2022-12-01T16:20:18.601Z,6.47
2022-12-01T16:22:49.398Z,6.85
2022-12-01T16:25:24.170Z,3.40
2022-12-01T16:27:55.830Z,8.35
2022-12-01T16:30:30.590Z,9.90
2022-12-01T16:33:04.437Z,9.70
2022-12-01T16:35:35.499Z,16.33
2022-12-01T16:38:20.898Z,13.68
2022-12-01T16:40:53.635Z,10.63
2022-12-01T16:43:25.091Z,7.18
2022-12-01T16:46:02.181Z,9.77
2022-12-01T16:48:35.407Z,11.10
2022-12-01T16:51:06.431Z,7.05
2022-12-01T16:53:36.419Z,7.15
2022-12-01T16:56:07.880Z,8.63
2022-12-01T16:58:36.994Z,7.13
2022-12-01T17:01:07.018Z,9.20
2022-12-01T17:03:36.425Z,13.18
2022-12-01T17:06:06.411Z,12.38
2022-12-01T17:08:35.584Z,7.72
2022-12-01T17:11:09.202Z,13.60
2022-12-01T17:13:38.823Z,13.10
2022-12-01T17:16:15.254Z,13.57
2022-12-01T17:18:47.253Z,12.07
2022-12-01T17:21:16.396Z,8.23
2022-12-01T17:23:45.661Z,4.90
2022-12-01T17:26:17.762Z,11.77
2022-12-01T17:28:47.115Z,8.23
2022-12-01T17:31:16.631Z,9.02
2022-12-01T17:33:45.932Z,7.28
2022-12-01T17:36:16.507Z,7.72
2022-12-01T17:38:47.091Z,12.07
2022-12-01T17:41:36.670Z,9.38
2022-12-01T17:44:06.493Z,4.82
2022-12-01T17:46:35.764Z,9.07
2022-12-01T17:49:09.770Z,9.70
2022-12-01T17:51:38.954Z,7.70
2022-12-01T17:54:08.231Z,6.63
2022-12-01T17:56:39.116Z,3.08
2022-12-01T17:59:08.506Z,5.85
2022-12-01T18:01:38.005Z,4.35
2022-12-01T18:04:07.596Z,5.70
2022-12-01T18:06:36.931Z,4.68
2022-12-01T18:09:06.709Z,4.97
2022-12-01T18:11:36.031Z,10.63
2022-12-01T18:14:06.654Z,6.85
2022-12-01T18:16:35.959Z,6.80
2022-12-01T18:19:05.363Z,4.93
2022-12-01T18:21:34.444Z,5.90
2022-12-01T18:24:05.336Z,8.45
2022-12-01T18:26:35.501Z,4.25
2022-12-01T18:29:08.462Z,5.93
2022-12-01T18:31:38.431Z,6.65
2022-12-01T18:34:09.712Z,2.70
2022-12-01T18:36:40.640Z,3.15
2022-12-01T18:39:11.594Z,4.80
2022-12-01T18:41:41.462Z,6.97
2022-12-01T18:44:12.336Z,4.28
2022-12-01T18:46:41.923Z,6.53
2022-12-01T18:49:15.348Z,6.40
2022-12-01T18:51:44.497Z,1.65
2022-12-01T18:54:15.656Z,4.47
2022-12-01T18:56:45.023Z,3.50
2022-12-01T18:59:17.688Z,3.75
2022-12-01T19:01:48.077Z,3.20
2022-12-01T19:04:18.050Z,5.88
2022-12-01T19:06:48.631Z,4.63
2022-12-01T19:09:18.254Z,4.80
2022-12-01T19:11:47.479Z,7.28
2022-12-01T19:14:20.101Z,2.95
2022-12-01T19:16:49.391Z,7.03
2022-12-01T19:19:18.562Z,4.38
2022-12-01T19:21:47.882Z,5.80
2022-12-01T19:24:17.105Z,3.80
2022-12-01T19:26:46.394Z,5.53
2022-12-01T19:29:17.052Z,2.95
2022-12-01T19:31:46.268Z,7.43
2022-12-01T19:34:15.405Z,2.60
2022-12-01T19:36:44.595Z,8.63
2022-12-01T19:39:13.784Z,5.53
2022-12-01T19:41:42.991Z,5.35
2022-12-01T19:44:12.656Z,5.75
2022-12-01T19:46:43.325Z,5.82
2022-12-01T19:49:12.989Z,7.95
2022-12-01T19:51:42.890Z,1.70
2022-12-01T19:54:16.352Z,8.82
2022-12-01T19:56:45.773Z,4.38
2022-12-01T19:59:15.387Z,6.13
2022-12-01T20:01:46.165Z,5.55
2022-12-01T20:04:15.419Z,6.90
2022-12-01T20:06:44.649Z,3.70
2022-12-01T20:09:13.721Z,4.38
2022-12-01T20:11:42.879Z,2.33
2022-12-01T20:14:12.487Z,6.75
2022-12-01T20:16:41.995Z,5.70
2022-12-01T20:19:12.850Z,4.00
2022-12-01T20:21:43.523Z,7.82
2022-12-01T20:24:15.077Z,7.80
2022-12-01T20:26:46.705Z,5.28
2022-12-01T20:29:17.906Z,4.30
2022-12-01T20:31:47.658Z,5.10
2022-12-01T20:34:21.119Z,7.05
2022-12-01T20:36:50.538Z,6.57
2022-12-01T20:39:19.932Z,6.13
2022-12-01T20:41:49.454Z,5.82
2022-12-01T20:44:19.107Z,7.45
2022-12-01T20:46:48.489Z,7.47
2022-12-01T20:49:19.898Z,6.22
2022-12-01T20:51:49.851Z,7.80
2022-12-01T20:54:27.957Z,7.45
2022-12-01T20:56:58.760Z,4.97
2022-12-01T20:59:28.326Z,5.43
2022-12-01T21:01:57.761Z,7.03
2022-12-01T21:04:28.648Z,6.45
2022-12-01T21:06:58.921Z,7.32
2022-12-01T21:09:28.799Z,9.60
2022-12-01T21:12:17.715Z,10.05
2022-12-01T21:14:50.933Z,10.10
2022-12-01T21:17:32.477Z,8.27
2022-12-01T21:20:12.093Z,7.38
2022-12-01T21:22:41.232Z,9.65
2022-12-01T21:25:16.191Z,7.65
2022-12-01T21:27:45.440Z,10.13
2022-12-01T21:30:19.944Z,9.00
2022-12-01T21:32:50.089Z,8.98
2022-12-01T21:35:24.062Z,7.65
2022-12-01T21:37:58.841Z,10.57
2022-12-01T21:40:28.926Z,8.50
2022-12-01T21:43:00.486Z,5.50
2022-12-01T21:45:31.638Z,5.93
2022-12-01T21:48:08.265Z,9.77
2022-12-01T21:50:39.013Z,9.07
2022-12-01T21:53:16.755Z,9.02
2022-12-01T21:55:47.324Z,6.68
2022-12-01T21:58:30.127Z,7.90
2022-12-01T22:01:00.841Z,3.00
2022-12-01T22:03:34.999Z,8.27
2022-12-01T22:06:31.570Z,6.28
2022-12-01T22:09:03.276Z,7.82
2022-12-01T22:11:33.411Z,8.90
2022-12-01T22:14:12.938Z,9.25
2022-12-01T22:16:45.110Z,7.82
2022-12-01T22:19:26.819Z,6.13
2022-12-01T22:22:04.055Z,5.57
2022-12-01T22:24:41.005Z,5.32
2022-12-01T22:27:30.840Z,4.60
2022-12-01T22:30:02.537Z,4.75
2022-12-01T22:32:40.371Z,3.85
2022-12-01T22:35:27.604Z,2.42
2022-12-01T22:38:16.002Z,3.50
2022-12-01T22:40:53.505Z,3.95
2022-12-01T22:43:28.706Z,3.10
2022-12-01T22:46:14.893Z,3.08
2022-12-01T22:48:45.763Z,3.95
2022-12-01T22:51:41.535Z,3.50
2022-12-01T22:54:35.999Z,3.72
2022-12-01T22:57:15.440Z,2.35
2022-12-01T22:59:48.226Z,4.30
2022-12-01T23:02:23.475Z,2.83
2022-12-01T23:04:56.717Z,3.67
2022-12-01T23:07:31.277Z,3.65
2022-12-01T23:10:08.170Z,3.72
2022-12-01T23:12:38.861Z,3.70
2022-12-01T23:15:23.217Z,4.53
2022-12-01T23:17:52.740Z,3.38
2022-12-01T23:20:32.081Z,2.85
2022-12-01T23:23:04.218Z,2.95
2022-12-01T23:25:36.762Z,2.88
2022-12-01T23:28:08.989Z,2.42
2022-12-01T23:30:41.003Z,2.97
2022-12-01T23:33:22.139Z,2.80
2022-12-01T23:35:56.337Z,3.10
2022-12-01T23:38:27.104Z,3.47
2022-12-01T23:41:00.852Z,2.90
2022-12-01T23:43:33.662Z,4.13
2022-12-01T23:46:07.982Z,2.00
2022-12-01T23:48:39.976Z,2.70
2022-12-01T23:51:17.787Z,3.08
2022-12-01T23:53:47.644Z,3.72
2022-12-01T23:56:21.800Z,2.95
2022-12-01T23:58:51.874Z,3.47
